Time;durP1;ratioP1;P1;durP2;ratioP2;P2;SDS_P1;SDS_P2;PMS_P1;PMS_P2;Temp;Humidity;BMP_temperature;BMP_pressure;BME280_temperature;BME280_humidity;BME280_pressure;Samples;Min_cycle;Max_cycle;Signal;HPM_P1;HPM_P2
2021/06/02 00:02:40;;;;;;;15.77;5.83;;;9.40;99.90;;;;;;5029410;28;20689;-72
2021/06/02 00:05:27;;;;;;;11.93;5.40;;;9.30;99.90;;;;;;5021523;28;20221;-72
2021/06/02 00:08:14;;;;;;;20.60;5.97;;;9.20;99.90;;;;;;5030729;28;20198;-72
2021/06/02 00:11:03;;;;;;;14.03;5.37;;;9.20;1.00;;;;;;5029411;28;20206;-72
2021/06/02 00:13:50;;;;;;;13.37;5.87;;;9.10;53.60;;;;;;5030724;28;20236;-72
2021/06/02 00:16:37;;;;;;;18.57;5.77;;;9.00;1.00;;;;;;5029999;28;20268;-72
2021/06/02 00:19:24;;;;;;;15.20;5.17;;;8.90;1.70;;;;;;5021901;28;20208;-72
2021/06/02 00:22:11;;;;;;;12.67;5.27;;;8.90;99.90;;;;;;5029908;28;20292;-72
2021/06/02 00:24:58;;;;;;;11.63;5.17;;;8.80;1.00;;;;;;5030177;28;20793;-72
2021/06/02 00:27:47;;;;;;;15.60;5.30;;;8.70;1.00;;;;;;5070232;28;20203;-72
2021/06/02 00:30:36;;;;;;;12.10;5.00;;;8.70;1.00;;;;;;5094007;28;20202;-72
2021/06/02 00:33:23;;;;;;;14.70;5.10;;;8.60;16.40;;;;;;5083383;28;20206;-72
2021/06/02 00:36:10;;;;;;;10.37;5.10;;;8.60;99.90;;;;;;5091783;28;20211;-72
2021/06/02 00:38:57;;;;;;;12.47;4.90;;;8.50;99.90;;;;;;5092381;28;20258;-72
2021/06/02 00:41:47;;;;;;;8.10;4.70;;;8.40;99.90;;;;;;5110288;28;20662;-72
2021/06/02 00:44:36;;;;;;;8.77;4.90;;;8.30;99.90;;;;;;5110480;28;20230;-72
2021/06/02 00:47:23;;;;;;;7.83;4.70;;;8.30;99.90;;;;;;5096779;28;20197;-72
2021/06/02 00:50:12;;;;;;;8.37;5.00;;;8.20;1.00;;;;;;5096287;28;21230;-72
2021/06/02 00:52:59;;;;;;;12.27;5.13;;;8.20;1.00;;;;;;5094109;28;20662;-72
2021/06/02 00:55:46;;;;;;;10.10;4.63;;;8.20;1.00;;;;;;5096926;28;20308;-72
2021/06/02 00:58:37;;;;;;;10.57;4.97;;;8.10;1.00;;;;;;5110731;28;20667;-72
2021/06/02 01:01:25;;;;;;;12.47;4.60;;;8.10;1.00;;;;;;5110325;28;20292;-72
2021/06/02 01:04:12;;;;;;;12.87;5.03;;;8.00;49.00;;;;;;5110742;28;20278;-72
2021/06/02 01:06:59;;;;;;;9.67;4.57;;;8.00;31.20;;;;;;5091464;28;20219;-72
2021/06/02 01:09:48;;;;;;;11.27;4.50;;;8.00;99.90;;;;;;5110296;28;20275;-72
2021/06/02 01:12:35;;;;;;;12.10;4.60;;;7.90;99.90;;;;;;5110794;28;20723;-71
2021/06/02 01:15:22;;;;;;;9.67;5.03;;;7.90;99.90;;;;;;5096897;28;20275;-72
2021/06/02 01:18:11;;;;;;;11.90;4.77;;;7.90;99.90;;;;;;5110689;28;20202;-71
2021/06/02 01:21:00;;;;;;;9.27;5.03;;;7.90;99.90;;;;;;5096120;28;20192;-71
2021/06/02 01:23:49;;;;;;;9.80;4.70;;;7.90;99.90;;;;;;5097175;28;20646;-71
2021/06/02 01:26:36;;;;;;;10.47;4.57;;;7.90;99.90;;;;;;5104317;28;20231;-71
2021/06/02 01:29:24;;;;;;;9.80;4.80;;;7.80;99.90;;;;;;5091813;28;20231;-71
2021/06/02 01:32:19;;;;;;;10.17;4.60;;;7.80;99.90;;;;;;5090941;28;20204;-71
2021/06/02 01:35:45;;;;;;;8.87;4.40;;;7.70;1.00;;;;;;5101793;28;20225;-71
2021/06/02 01:38:59;;;;;;;9.33;4.50;;;7.70;1.00;;;;;;5093304;28;20195;-71
2021/06/02 01:42:11;;;;;;;14.77;4.90;;;7.60;1.00;;;;;;5091482;28;20192;-71
2021/06/02 01:45:34;;;;;;;8.03;4.40;;;7.50;1.00;;;;;;5089670;28;20223;-71
2021/06/02 01:48:35;;;;;;;7.87;4.20;;;7.50;1.00;;;;;;5083859;28;20203;-72
2021/06/02 01:51:48;;;;;;;7.67;4.50;;;7.40;1.00;;;;;;5083499;28;20573;-72
2021/06/02 01:55:04;;;;;;;8.70;4.50;;;7.30;1.00;;;;;;5090805;28;20926;-72
2021/06/02 01:58:28;;;;;;;12.67;4.50;;;7.20;1.00;;;;;;5099091;28;20274;-72
2021/06/02 02:01:27;;;;;;;10.43;4.77;;;7.20;1.00;;;;;;5047772;28;20205;-72
2021/06/02 02:04:42;;;;;;;10.80;4.23;;;7.10;1.00;;;;;;5030571;28;20202;-71
2021/06/02 02:07:53;;;;;;;14.43;4.97;;;7.10;1.00;;;;;;5035561;28;20582;-71
2021/06/02 02:10:46;;;;;;;10.50;5.00;;;7.00;1.00;;;;;;5028906;28;20202;-72
2021/06/02 02:14:04;;;;;;;8.57;4.90;;;6.90;1.00;;;;;;5031364;28;20206;-72
2021/06/02 02:16:56;;;;;;;17.50;4.80;;;6.90;1.00;;;;;;5034560;28;20708;-72
2021/06/02 02:19:53;;;;;;;11.83;4.40;;;6.80;1.00;;;;;;5037410;28;20242;-72
2021/06/02 02:22:58;;;;;;;6.80;4.30;;;6.80;1.00;;;;;;5046951;28;20324;-71
2021/06/02 02:25:53;;;;;;;8.53;4.73;;;6.80;1.00;;;;;;5047112;28;20232;-72
2021/06/02 02:29:03;;;;;;;9.23;5.07;;;6.80;1.00;;;;;;5027222;28;20345;-72
2021/06/02 02:32:12;;;;;;;12.83;5.23;;;6.70;1.00;;;;;;5022114;28;20194;-71
2021/06/02 02:35:08;;;;;;;13.10;5.77;;;6.70;1.00;;;;;;5050525;28;20659;-71
2021/06/02 02:38:00;;;;;;;10.70;5.13;;;6.60;1.00;;;;;;5110801;28;20279;-71
2021/06/02 02:40:58;;;;;;;9.43;4.77;;;6.60;1.00;;;;;;5084374;28;20273;-71
2021/06/02 02:44:00;;;;;;;9.43;5.07;;;6.60;1.00;;;;;;5089892;28;20674;-71
2021/06/02 02:46:51;;;;;;;11.13;4.60;;;6.60;1.00;;;;;;5104307;28;20686;-71
2021/06/02 02:49:46;;;;;;;10.20;4.93;;;6.60;1.00;;;;;;5095039;28;20213;-71
2021/06/02 02:52:55;;;;;;;8.10;4.60;;;6.50;1.00;;;;;;5109195;28;20699;-72
2021/06/02 02:55:43;;;;;;;12.00;4.77;;;6.50;1.00;;;;;;5113315;28;20666;-72
2021/06/02 02:58:36;;;;;;;7.17;4.60;;;6.40;1.00;;;;;;5093958;28;20569;-72
2021/06/02 03:01:25;;;;;;;9.93;5.17;;;6.40;1.00;;;;;;5095497;28;20195;-72
2021/06/02 03:04:16;;;;;;;8.57;4.80;;;6.40;1.00;;;;;;5110898;28;20195;-71
2021/06/02 03:07:04;;;;;;;12.30;4.83;;;6.40;1.00;;;;;;5105193;28;20256;-71
2021/06/02 03:09:54;;;;;;;12.63;5.07;;;6.40;1.00;;;;;;5084370;28;20199;-71
2021/06/02 03:12:49;;;;;;;11.43;5.67;;;6.40;1.00;;;;;;5102064;28;20241;-71
2021/06/02 03:15:43;;;;;;;12.53;5.47;;;6.40;13.60;;;;;;5110800;28;20565;-71
2021/06/02 03:18:36;;;;;;;8.07;4.40;;;6.50;18.90;;;;;;5109649;28;20218;-71
2021/06/02 03:21:46;;;;;;;16.53;5.10;;;6.50;18.20;;;;;;5112103;28;20569;-72
2021/06/02 03:25:01;;;;;;;8.90;4.67;;;6.60;22.40;;;;;;5110606;28;20229;-71
2021/06/02 03:27:59;;;;;;;10.70;4.60;;;6.70;23.10;;;;;;5075905;28;20684;-71
2021/06/02 03:30:53;;;;;;;10.00;4.77;;;6.70;22.40;;;;;;5090535;28;20215;-71
2021/06/02 03:44:51;;;;;;;8.17;4.63;;;7.20;9.30;;;;;;5092598;28;20176;-72
2021/06/02 03:47:45;;;;;;;10.33;5.07;;;7.30;3.30;;;;;;5087613;28;20196;-72
2021/06/02 03:50:36;;;;;;;9.27;4.47;;;7.40;1.00;;;;;;5092061;28;20196;-71
2021/06/02 03:53:36;;;;;;;10.10;4.37;;;7.50;1.00;;;;;;5090981;28;20638;-71
2021/06/02 03:56:56;;;;;;;8.37;4.50;;;7.70;1.00;;;;;;5076725;28;20212;-71
2021/06/02 03:59:44;;;;;;;8.83;4.40;;;7.80;1.00;;;;;;5073117;28;20660;-72
2021/06/02 04:02:35;;;;;;;5.93;4.03;;;7.90;1.00;;;;;;5085473;28;20233;-72
2021/06/02 04:05:41;;;;;;;7.60;3.77;;;8.10;1.00;;;;;;5072741;28;20218;-72
2021/06/02 04:08:35;;;;;;;8.03;4.03;;;8.20;1.00;;;;;;5070955;28;20227;-72
2021/06/02 04:11:28;;;;;;;8.70;4.43;;;8.30;1.00;;;;;;5091946;28;20235;-72
2021/06/02 04:14:29;;;;;;;10.37;4.57;;;8.50;1.00;;;;;;5084054;28;20263;-71
2021/06/02 04:17:16;;;;;;;8.43;4.13;;;8.70;1.00;;;;;;5070101;28;20220;-72
2021/06/02 04:20:05;;;;;;;8.23;4.03;;;8.90;1.00;;;;;;5083653;28;20815;-72
2021/06/02 04:22:53;;;;;;;10.97;3.80;;;9.00;1.00;;;;;;5071913;28;20257;-72
2021/06/02 04:25:40;;;;;;;12.00;4.40;;;9.20;1.00;;;;;;5074473;28;20315;-72
2021/06/02 04:28:27;;;;;;;7.70;4.10;;;9.40;1.00;;;;;;5074945;28;20595;-72
2021/06/02 04:31:15;;;;;;;5.90;3.77;;;9.50;99.90;;;;;;5070129;28;20581;-72
2021/06/02 04:34:02;;;;;;;7.63;4.07;;;9.70;99.90;;;;;;5075719;28;20192;-72
2021/06/02 04:36:51;;;;;;;9.03;4.60;;;9.90;99.90;;;;;;5083688;28;20225;-72
2021/06/02 04:39:40;;;;;;;7.77;3.67;;;10.00;99.90;;;;;;5089303;28;20591;-70
2021/06/02 04:42:27;;;;;;;6.60;3.90;;;10.20;99.90;;;;;;5090934;28;20274;-71
2021/06/02 04:45:23;;;;;;;7.77;4.30;;;10.40;99.90;;;;;;5088302;28;20238;-71
2021/06/02 04:48:11;;;;;;;6.43;4.10;;;10.50;99.90;;;;;;5068554;28;20742;-71
2021/06/02 04:51:17;;;;;;;6.27;3.90;;;10.70;1.00;;;;;;5088958;28;20204;-71
2021/06/02 04:54:24;;;;;;;7.50;4.13;;;10.90;1.00;;;;;;5065990;28;20286;-71
2021/06/02 04:58:03;;;;;;;7.10;4.37;;;11.10;1.00;;;;;;5072068;28;20219;-71
2021/06/02 05:01:28;;;;;;;10.57;4.40;;;11.30;99.90;;;;;;5037224;28;20198;-72
2021/06/02 05:04:52;;;;;;;9.17;4.27;;;11.50;1.00;;;;;;5046481;28;20585;-71
2021/06/02 05:08:31;;;;;;;8.73;4.50;;;11.70;70.60;;;;;;5038911;28;20206;-71
2021/06/02 05:11:46;;;;;;;8.70;4.80;;;12.00;1.00;;;;;;5040162;28;20637;-71
2021/06/02 05:15:05;;;;;;;11.33;4.90;;;12.30;1.00;;;;;;4987974;28;20207;-72
2021/06/02 05:18:10;;;;;;;11.43;4.57;;;12.50;99.90;;;;;;4981589;28;20250;-71
2021/06/02 05:24:59;;;;;;;7.33;3.83;;;13.00;1.00;;;;;;4925591;29;20207;-72
2021/06/02 05:28:28;;;;;;;9.13;4.40;;;13.20;1.00;;;;;;4951278;28;20203;-72
2021/06/02 05:31:30;;;;;;;11.40;4.10;;;13.40;1.00;;;;;;4893366;29;20228;-72
2021/06/02 05:34:55;;;;;;;9.00;3.77;;;13.50;99.90;;;;;;4868140;29;20747;-72
2021/06/02 05:38:15;;;;;;;15.47;3.80;;;13.70;95.00;;;;;;4820837;29;20312;-72
2021/06/02 05:41:11;;;;;;;14.77;4.30;;;13.80;2.50;;;;;;4820588;29;20208;-72
2021/06/02 05:44:33;;;;;;;8.73;3.77;;;14.00;1.00;;;;;;4837395;29;20211;-72
2021/06/02 05:47:59;;;;;;;7.10;3.70;;;14.10;1.00;;;;;;4830252;29;20292;-71
2021/06/02 05:51:34;;;;;;;11.10;3.90;;;14.30;1.00;;;;;;4850225;29;20195;-71
2021/06/02 05:55:12;;;;;;;8.67;3.50;;;14.60;1.00;;;;;;4802854;29;20223;-72
2021/06/02 05:58:27;;;;;;;7.80;3.50;;;14.80;1.00;;;;;;4841984;29;20224;-72
2021/06/02 06:01:39;;;;;;;7.60;3.60;;;15.00;99.90;;;;;;4868559;29;20207;-72
2021/06/02 06:05:11;;;;;;;7.17;2.87;;;15.10;99.90;;;;;;4875693;29;20205;-72
2021/06/02 06:08:25;;;;;;;6.80;2.90;;;15.30;99.90;;;;;;4856499;29;20295;-72
2021/06/02 06:11:59;;;;;;;6.90;3.10;;;15.50;99.90;;;;;;4842202;29;20220;-72
2021/06/02 06:15:13;;;;;;;8.07;2.90;;;15.70;99.90;;;;;;4869333;29;20205;-66
2021/06/02 06:18:17;;;;;;;6.03;2.80;;;15.80;76.00;;;;;;4894116;29;20231;-67
2021/06/02 06:21:24;;;;;;;5.53;3.30;;;15.90;41.30;;;;;;4913097;29;20527;-66
2021/06/02 06:24:12;;;;;;;6.33;3.03;;;16.10;22.90;;;;;;4907571;29;20562;-65
2021/06/02 06:27:03;;;;;;;9.83;2.67;;;16.30;2.50;;;;;;4916806;29;20741;-67
2021/06/02 06:29:57;;;;;;;4.07;2.50;;;16.40;1.00;;;;;;4914912;28;20255;-66
2021/06/02 06:32:44;;;;;;;4.03;2.70;;;16.50;1.00;;;;;;4954234;28;20208;-66
2021/06/02 06:35:31;;;;;;;11.13;3.13;;;16.60;1.00;;;;;;4972213;28;20256;-66
2021/06/02 06:38:21;;;;;;;5.63;2.77;;;16.70;1.00;;;;;;4955815;28;20196;-66
2021/06/02 06:41:08;;;;;;;7.43;2.90;;;16.90;1.00;;;;;;4956334;28;20670;-66
2021/06/02 06:43:55;;;;;;;5.50;2.60;;;16.90;1.00;;;;;;4990638;28;20576;-66
2021/06/02 06:46:45;;;;;;;5.80;3.00;;;17.00;1.00;;;;;;5033623;28;20208;-66
2021/06/02 06:49:32;;;;;;;5.47;2.77;;;17.30;1.00;;;;;;5055097;28;20209;-66
2021/06/02 06:52:22;;;;;;;8.27;2.57;;;17.40;1.00;;;;;;5049767;28;20214;-66
2021/06/02 06:55:10;;;;;;;5.37;3.30;;;17.40;1.00;;;;;;5073417;28;20193;-66
2021/06/02 06:57:57;;;;;;;6.53;3.03;;;17.40;1.00;;;;;;5060574;28;20606;-66
2021/06/02 07:00:44;;;;;;;4.10;3.03;;;17.60;1.00;;;;;;5062896;28;20284;-67
2021/06/02 07:03:33;;;;;;;4.90;2.93;;;17.70;1.00;;;;;;5054382;28;20562;-67
2021/06/02 07:06:20;;;;;;;8.00;2.63;;;17.80;1.00;;;;;;5054618;28;20223;-66
2021/06/02 07:09:07;;;;;;;4.47;3.17;;;17.80;1.00;;;;;;5071393;28;20350;-66
2021/06/02 07:11:55;;;;;;;5.73;3.20;;;17.80;1.00;;;;;;5057966;28;20292;-66
2021/06/02 07:14:42;;;;;;;7.77;3.50;;;17.90;1.00;;;;;;5056032;28;20211;-67
2021/06/02 07:17:29;;;;;;;7.73;3.10;;;18.00;1.00;;;;;;5059212;28;20591;-66
2021/06/02 07:20:20;;;;;;;9.03;3.00;;;18.10;1.00;;;;;;5048969;28;20671;-66
2021/06/02 07:23:08;;;;;;;4.93;3.10;;;18.30;1.00;;;;;;5055951;28;20211;-66
2021/06/02 07:25:55;;;;;;;7.23;2.60;;;18.50;1.00;;;;;;5097586;28;20228;-66
2021/06/02 07:28:42;;;;;;;4.47;2.87;;;18.50;1.00;;;;;;5112935;28;20207;-66
2021/06/02 07:31:30;;;;;;;8.20;3.17;;;18.70;1.00;;;;;;5111809;28;20203;-66
2021/06/02 07:34:17;;;;;;;8.23;3.23;;;18.80;1.00;;;;;;5110103;28;20206;-66
2021/06/02 07:37:05;;;;;;;7.73;3.40;;;18.90;1.00;;;;;;5109234;28;20220;-66
2021/06/02 07:39:53;;;;;;;10.70;2.60;;;19.00;1.00;;;;;;5101763;28;20189;-66
2021/06/02 07:42:40;;;;;;;7.43;2.77;;;19.10;1.00;;;;;;5096530;28;20201;-66
2021/06/02 07:45:27;;;;;;;7.10;2.50;;;19.20;1.00;;;;;;5106307;28;20211;-66
2021/06/02 07:48:14;;;;;;;7.07;2.30;;;19.40;1.00;;;;;;5090644;28;20197;-67
2021/06/02 07:51:02;;;;;;;5.30;2.40;;;19.50;1.00;;;;;;5093867;28;20203;-66
2021/06/02 07:53:50;;;;;;;5.70;2.40;;;19.60;1.00;;;;;;5110860;28;20205;-66
2021/06/02 07:56:37;;;;;;;4.73;2.27;;;19.70;1.00;;;;;;5104377;28;20239;-66
2021/06/02 07:59:24;;;;;;;6.37;2.53;;;19.80;1.00;;;;;;5084429;28;20211;-66
2021/06/02 08:02:11;;;;;;;8.43;2.70;;;20.00;1.00;;;;;;5088840;28;20206;-66
2021/06/02 08:04:58;;;;;;;5.57;2.53;;;20.10;1.00;;;;;;5109156;28;20193;-66
2021/06/02 08:07:46;;;;;;;8.00;2.67;;;20.20;1.00;;;;;;5081640;28;20241;-66
2021/06/02 08:10:34;;;;;;;9.30;2.83;;;20.20;1.00;;;;;;5088818;28;20199;-66
2021/06/02 08:13:21;;;;;;;23.80;4.90;;;20.30;1.00;;;;;;5105822;28;20644;-66
2021/06/02 08:16:08;;;;;;;10.50;2.50;;;20.40;1.00;;;;;;5097384;28;20214;-66
2021/06/02 08:18:55;;;;;;;4.53;2.07;;;20.50;1.00;;;;;;5090438;28;20190;-66
2021/06/02 08:21:42;;;;;;;7.73;2.00;;;20.60;1.00;;;;;;5090913;28;20293;-66
2021/06/02 08:24:30;;;;;;;3.73;1.90;;;20.20;1.00;;;;;;5097180;28;20300;-66
2021/06/02 08:27:18;;;;;;;7.37;1.60;;;20.10;1.00;;;;;;5097224;28;20195;-66
2021/06/02 08:30:06;;;;;;;2.33;1.50;;;20.60;1.00;;;;;;5111096;28;20203;-67
2021/06/02 08:32:53;;;;;;;3.77;1.53;;;20.90;1.00;;;;;;5098516;28;20260;-67
2021/06/02 08:35:40;;;;;;;7.63;1.70;;;21.10;1.00;;;;;;5092032;28;20207;-66
2021/06/02 08:38:27;;;;;;;6.13;1.63;;;21.20;1.00;;;;;;5089628;28;20262;-66
2021/06/02 08:41:14;;;;;;;5.83;1.87;;;21.50;1.00;;;;;;5091901;28;20268;-66
2021/06/02 08:44:03;;;;;;;3.23;1.90;;;21.70;1.00;;;;;;5085533;28;20211;-67
2021/06/02 08:46:52;;;;;;;2.47;1.70;;;21.70;1.00;;;;;;5106134;28;20195;-66
2021/06/02 08:49:39;;;;;;;5.43;2.00;;;21.70;1.00;;;;;;5097061;28;20199;-66
2021/06/02 08:52:26;;;;;;;4.67;2.00;;;21.60;1.00;;;;;;5102514;28;20233;-66
2021/06/02 08:55:14;;;;;;;8.80;1.83;;;21.50;1.00;;;;;;5106280;28;20228;-66
2021/06/02 08:58:01;;;;;;;3.27;1.60;;;21.10;1.00;;;;;;5081819;28;20207;-66
2021/06/02 09:00:50;;;;;;;6.33;1.77;;;20.70;1.00;;;;;;5084117;28;20196;-66
2021/06/02 09:03:37;;;;;;;2.83;1.77;;;21.20;1.00;;;;;;5095209;28;20572;-66
2021/06/02 09:06:24;;;;;;;2.37;1.80;;;21.70;1.00;;;;;;5100048;28;20224;-66
2021/06/02 09:09:11;;;;;;;4.53;1.87;;;21.80;1.00;;;;;;5094090;28;20200;-67
2021/06/02 09:12:03;;;;;;;6.13;1.80;;;21.80;1.00;;;;;;5081650;28;20539;-66
2021/06/02 09:14:50;;;;;;;2.83;1.60;;;21.80;1.00;;;;;;5096123;28;20187;-66
2021/06/02 09:17:57;;;;;;;3.27;1.53;;;21.80;1.00;;;;;;5102124;28;20219;-66
2021/06/02 09:20:45;;;;;;;6.43;1.60;;;21.60;1.00;;;;;;5103325;28;20202;-66
2021/06/02 09:23:35;;;;;;;4.43;1.90;;;21.80;1.00;;;;;;5111059;28;20207;-66
2021/06/02 09:26:23;;;;;;;6.43;1.90;;;22.20;1.00;;;;;;5101534;28;20221;-66
2021/06/02 09:29:11;;;;;;;3.30;1.70;;;22.30;1.00;;;;;;5110410;28;20186;-66
2021/06/02 09:31:58;;;;;;;2.90;1.60;;;22.50;1.00;;;;;;5110593;28;20294;-66
2021/06/02 09:34:46;;;;;;;8.03;2.90;;;22.60;1.00;;;;;;5111279;28;20195;-66
2021/06/02 09:37:50;;;;;;;7.33;2.40;;;22.40;1.00;;;;;;5085499;28;20290;-67
2021/06/02 09:40:37;;;;;;;5.83;2.30;;;22.40;1.00;;;;;;5087241;28;20237;-66
2021/06/02 09:43:29;;;;;;;4.37;2.00;;;22.80;1.00;;;;;;5103769;28;20199;-67
2021/06/02 09:46:17;;;;;;;11.27;2.47;;;22.90;1.00;;;;;;5106910;28;20210;-67
2021/06/02 09:49:04;;;;;;;4.87;2.20;;;22.70;1.00;;;;;;5105849;28;20188;-66
2021/06/02 09:51:53;;;;;;;4.27;2.00;;;22.40;1.00;;;;;;5096295;28;20203;-67
2021/06/02 09:54:40;;;;;;;4.47;2.27;;;21.80;1.00;;;;;;5096199;28;20604;-66
2021/06/02 09:57:28;;;;;;;4.23;2.20;;;21.30;1.00;;;;;;5113718;28;20211;-66
2021/06/02 10:00:15;;;;;;;2.93;2.10;;;21.10;1.00;;;;;;5098894;28;20203;-66
2021/06/02 10:03:03;;;;;;;3.70;2.10;;;21.00;1.00;;;;;;5095966;28;20256;-66
2021/06/02 10:05:51;;;;;;;4.23;2.10;;;21.40;1.00;;;;;;5095722;28;20258;-66
2021/06/02 10:08:41;;;;;;;3.90;2.37;;;22.00;1.00;;;;;;5105329;28;20196;-67
2021/06/02 10:11:30;;;;;;;4.00;2.13;;;22.60;1.00;;;;;;5095735;28;20242;-67
2021/06/02 10:14:17;;;;;;;7.20;2.00;;;22.60;1.00;;;;;;5089176;28;20199;-66
2021/06/02 10:17:04;;;;;;;6.90;2.10;;;22.20;1.00;;;;;;5095603;28;20215;-66
2021/06/02 10:19:52;;;;;;;10.90;1.90;;;22.10;1.00;;;;;;5101318;28;20248;-66
2021/06/02 10:22:39;;;;;;;3.70;2.00;;;22.50;1.00;;;;;;5108684;28;20195;-66
2021/06/02 10:25:29;;;;;;;6.33;1.50;;;23.20;1.00;;;;;;5095350;28;20227;-67
2021/06/02 10:28:16;;;;;;;5.73;1.70;;;23.70;1.00;;;;;;5089195;28;20226;-67
2021/06/02 10:31:04;;;;;;;2.93;1.60;;;23.80;99.90;;;;;;5096565;28;20543;-67
2021/06/02 10:33:51;;;;;;;3.37;1.77;;;24.20;1.00;;;;;;5092146;28;20230;-67
2021/06/02 10:36:38;;;;;;;2.30;1.83;;;24.30;99.90;;;;;;5106517;28;20220;-67
2021/06/02 10:39:25;;;;;;;2.87;1.70;;;24.30;99.90;;;;;;5107709;28;20199;-66
2021/06/02 10:42:20;;;;;;;7.77;2.00;;;24.60;99.90;;;;;;5094331;28;20281;-67
2021/06/02 10:45:11;;;;;;;6.00;1.80;;;24.60;99.90;;;;;;5101514;28;20210;-67
2021/06/02 10:47:59;;;;;;;4.03;1.93;;;24.60;99.90;;;;;;5111256;28;20722;-67
2021/06/02 10:50:47;;;;;;;3.40;1.77;;;24.40;99.90;;;;;;5103348;28;20231;-67
2021/06/02 10:53:34;;;;;;;4.13;1.80;;;24.40;99.90;;;;;;5086308;28;20188;-67
2021/06/02 10:56:21;;;;;;;3.50;1.50;;;24.60;99.90;;;;;;5102105;28;20952;-67
2021/06/02 10:59:30;;;;;;;6.70;1.50;;;24.60;99.90;;;;;;5112524;28;20230;-66
2021/06/02 11:02:18;;;;;;;4.87;1.90;;;24.60;99.90;;;;;;5090032;28;20669;-66
2021/06/02 11:05:15;;;;;;;5.67;1.90;;;24.60;99.90;;;;;;5113533;28;20725;-66
2021/06/02 11:08:02;;;;;;;7.50;1.63;;;24.90;99.90;;;;;;5102294;28;20191;-67
2021/06/02 11:10:53;;;;;;;3.60;1.70;;;24.80;99.90;;;;;;5082365;28;20295;-67
2021/06/02 11:13:41;;;;;;;4.60;1.70;;;25.00;99.90;;;;;;5091450;28;20628;-66
2021/06/02 11:16:39;;;;;;;3.17;1.40;;;25.00;99.90;;;;;;5092505;28;20200;-67
2021/06/02 11:19:26;;;;;;;4.23;2.07;;;25.30;99.90;;;;;;5095002;28;20196;-66
2021/06/02 11:22:15;;;;;;;2.67;1.80;;;25.30;99.90;;;;;;5094838;28;20203;-66
2021/06/02 11:25:02;;;;;;;3.95;1.85;;;25.60;99.90;;;;;;5111126;28;20250;-67
2021/06/02 11:27:49;;;;;;;3.45;1.52;;;25.80;99.90;;;;;;5106421;28;20199;-67
2021/06/02 11:30:36;;;;;;;1.80;1.67;;;25.90;99.90;;;;;;5087981;28;20203;-67
2021/06/02 11:33:26;;;;;;;3.20;1.60;;;25.60;99.90;;;;;;5112174;28;20613;-67
2021/06/02 11:36:13;;;;;;;3.60;1.90;;;25.50;99.90;;;;;;5108404;28;20655;-67
2021/06/02 11:39:00;;;;;;;3.45;1.80;;;25.60;99.90;;;;;;5093483;28;20255;-67
2021/06/02 11:41:47;;;;;;;4.85;1.85;;;25.50;99.90;;;;;;5101860;28;20614;-66
2021/06/02 11:44:35;;;;;;;4.80;1.80;;;25.30;99.90;;;;;;5093803;28;20562;-67
2021/06/02 11:47:22;;;;;;;4.88;2.10;;;25.00;99.90;;;;;;5094469;28;20200;-66
2021/06/02 11:50:11;;;;;;;7.75;2.28;;;24.90;99.90;;;;;;5110003;28;20203;-66
2021/06/02 11:53:00;;;;;;;5.32;2.50;;;24.60;99.90;;;;;;5109326;28;20204;-66
2021/06/02 11:55:48;;;;;;;2.90;1.77;;;24.10;99.90;;;;;;5102412;28;20249;-66
2021/06/02 11:58:35;;;;;;;4.83;1.90;;;23.60;99.90;;;;;;5093553;28;20302;-66
2021/06/02 12:01:23;;;;;;;10.93;2.27;;;24.00;99.90;;;;;;5112190;28;20626;-66
2021/06/02 12:04:10;;;;;;;4.23;2.30;;;24.40;99.90;;;;;;5110309;28;20217;-67
2021/06/02 12:06:59;;;;;;;2.70;2.10;;;24.40;99.90;;;;;;5107212;28;20207;-66
2021/06/02 12:09:50;;;;;;;4.10;2.00;;;24.70;99.90;;;;;;5097056;28;20192;-66
2021/06/02 12:12:39;;;;;;;5.23;2.20;;;25.00;99.90;;;;;;5090712;28;20207;-67
2021/06/02 12:15:26;;;;;;;8.73;2.20;;;24.80;99.90;;;;;;5093950;28;20673;-66
2021/06/02 12:18:27;;;;;;;2.47;2.00;;;25.00;99.90;;;;;;5097831;28;20215;-67
2021/06/02 12:21:17;;;;;;;2.20;1.97;;;24.50;99.90;;;;;;5083383;28;20195;-66
2021/06/02 12:24:06;;;;;;;4.97;2.40;;;24.80;99.90;;;;;;5098399;28;20638;-67
2021/06/02 12:26:56;;;;;;;4.47;2.00;;;25.00;99.90;;;;;;5084064;28;20204;-66
2021/06/02 12:29:43;;;;;;;2.73;1.93;;;25.40;99.90;;;;;;5092975;28;20229;-66
2021/06/02 12:32:52;;;;;;;3.35;2.20;;;25.30;99.90;;;;;;5085464;28;20211;-67
2021/06/02 12:35:39;;;;;;;4.13;2.10;;;25.50;99.90;;;;;;5094524;28;20199;-67
2021/06/02 12:38:27;;;;;;;5.77;2.10;;;25.60;99.90;;;;;;5067798;28;20275;-66
2021/06/02 12:41:16;;;;;;;3.70;2.30;;;25.50;99.90;;;;;;5081858;28;20237;-66
2021/06/02 12:44:04;;;;;;;2.77;2.20;;;25.40;99.90;;;;;;5071903;28;20224;-66
2021/06/02 12:47:00;;;;;;;2.80;2.10;;;25.20;99.90;;;;;;5072442;28;20205;-67
2021/06/02 12:49:48;;;;;;;2.03;1.80;;;24.50;99.90;;;;;;5091367;28;20196;-66
2021/06/02 12:52:36;;;;;;;5.30;1.90;;;24.80;99.90;;;;;;5084399;28;20252;-66
2021/06/02 12:55:23;;;;;;;10.83;2.00;;;25.20;99.90;;;;;;5091994;28;20250;-66
2021/06/02 12:58:12;;;;;;;2.83;1.95;;;25.60;99.90;;;;;;5089094;28;20214;-66
2021/06/02 13:01:01;;;;;;;2.45;1.85;;;26.00;99.90;;;;;;5098440;28;20659;-66
2021/06/02 13:03:48;;;;;;;4.15;1.85;;;26.10;99.90;;;;;;5105883;28;20196;-66
2021/06/02 13:06:35;;;;;;;2.22;1.70;;;26.50;99.90;;;;;;5111475;28;20219;-66
2021/06/02 13:09:23;;;;;;;3.92;2.03;;;26.50;99.90;;;;;;5111227;28;20604;-67
2021/06/02 13:12:18;;;;;;;2.90;2.00;;;26.10;99.90;;;;;;5088750;28;20193;-67
2021/06/02 13:15:25;;;;;;;4.25;2.00;;;26.10;99.90;;;;;;5104385;28;20571;-67
2021/06/02 13:18:22;;;;;;;2.90;2.00;;;25.90;99.90;;;;;;5105967;28;20265;-67
2021/06/02 13:21:10;;;;;;;4.05;1.95;;;25.40;99.90;;;;;;5097590;28;20227;-67
2021/06/02 13:24:10;;;;;;;5.07;2.00;;;24.70;99.90;;;;;;5111548;28;20304;-67
2021/06/02 13:26:58;;;;;;;4.63;2.30;;;24.90;99.90;;;;;;5111327;28;20657;-66
2021/06/02 13:30:02;;;;;;;2.80;1.98;;;25.20;99.90;;;;;;5085188;28;20284;-67
2021/06/02 13:32:57;;;;;;;4.88;1.80;;;25.80;99.90;;;;;;5091232;28;20227;-66
2021/06/02 13:35:44;;;;;;;6.15;2.50;;;26.10;99.90;;;;;;5108055;28;20199;-66
2021/06/02 13:38:31;;;;;;;7.32;2.17;;;26.30;99.90;;;;;;5090818;28;20211;-66
2021/06/02 13:41:23;;;;;;;5.03;2.17;;;26.20;99.90;;;;;;5098989;28;20416;-67
2021/06/02 13:44:20;;;;;;;2.83;1.80;;;26.30;99.90;;;;;;5094033;28;20192;-66
2021/06/02 13:47:07;;;;;;;1.98;1.77;;;25.50;99.90;;;;;;5094397;28;20196;-66
2021/06/02 13:50:09;;;;;;;3.03;2.10;;;25.00;99.90;;;;;;5087385;28;20192;-67
2021/06/02 13:53:14;;;;;;;4.70;1.93;;;24.70;99.90;;;;;;5080219;28;20188;-66
2021/06/02 13:56:01;;;;;;;5.67;2.00;;;24.60;99.90;;;;;;5099894;28;20192;-66
2021/06/02 13:59:06;;;;;;;9.40;1.90;;;24.80;99.90;;;;;;5085872;28;20227;-66
2021/06/02 14:01:53;;;;;;;3.28;2.10;;;25.50;99.90;;;;;;5082682;28;20200;-67
2021/06/02 14:04:41;;;;;;;3.17;1.90;;;25.60;99.90;;;;;;5109656;28;20654;-66
2021/06/02 14:07:29;;;;;;;3.35;1.92;;;26.20;99.90;;;;;;5103458;28;20246;-66
2021/06/02 14:10:16;;;;;;;2.78;1.83;;;26.30;99.90;;;;;;5092979;28;20294;-67
2021/06/02 14:13:04;;;;;;;5.30;1.75;;;25.80;99.90;;;;;;5086517;28;20673;-66
2021/06/02 14:15:51;;;;;;;7.40;2.07;;;25.40;99.90;;;;;;5091056;28;20289;-66
2021/06/02 14:18:38;;;;;;;2.40;1.83;;;24.60;99.90;;;;;;5095095;28;20566;-66
2021/06/02 14:21:25;;;;;;;5.17;2.17;;;24.50;99.90;;;;;;5083691;28;20199;-66
2021/06/02 14:24:13;;;;;;;5.10;1.90;;;24.40;99.90;;;;;;5092781;28;20677;-67
2021/06/02 14:27:00;;;;;;;3.70;2.27;;;24.60;99.90;;;;;;5091769;28;20542;-66
2021/06/02 14:29:47;;;;;;;3.10;2.20;;;25.30;99.90;;;;;;5094768;28;20192;-67
2021/06/02 14:32:34;;;;;;;2.78;2.00;;;25.90;99.90;;;;;;5097008;28;20573;-66
2021/06/02 14:35:21;;;;;;;5.18;2.20;;;26.50;99.90;;;;;;5107498;28;20218;-67
2021/06/02 14:38:08;;;;;;;2.38;1.85;;;26.50;99.90;;;;;;5087833;28;20219;-67
2021/06/02 14:40:59;;;;;;;4.47;1.80;;;26.70;99.90;;;;;;5103459;28;20265;-67
2021/06/02 14:43:46;;;;;;;4.10;1.95;;;26.80;99.90;;;;;;5114514;28;20240;-67
2021/06/02 14:46:33;;;;;;;5.30;2.00;;;26.30;99.90;;;;;;5107343;28;20199;-67
2021/06/02 14:49:20;;;;;;;4.68;2.17;;;25.70;99.90;;;;;;5088114;28;20265;-66
2021/06/02 14:52:07;;;;;;;10.77;2.00;;;26.10;99.90;;;;;;5094920;28;20625;-67
2021/06/02 14:54:54;;;;;;;3.42;2.00;;;26.50;99.90;;;;;;5094301;28;20200;-66
2021/06/02 14:57:42;;;;;;;4.82;2.25;;;26.60;99.90;;;;;;5103464;28;20526;-66
2021/06/02 15:00:30;;;;;;;3.67;1.90;;;26.40;99.90;;;;;;5088605;28;20223;-67
2021/06/02 15:03:17;;;;;;;3.88;2.22;;;26.60;99.90;;;;;;5093554;28;20196;-66
2021/06/02 15:06:04;;;;;;;6.63;2.00;;;26.80;99.90;;;;;;5102178;28;20655;-67
2021/06/02 15:08:51;;;;;;;3.63;1.65;;;26.80;99.90;;;;;;5091838;28;20215;-66
2021/06/02 15:11:38;;;;;;;3.30;1.88;;;27.00;99.90;;;;;;5093565;28;20204;-66
2021/06/02 15:14:27;;;;;;;2.83;1.80;;;26.80;99.90;;;;;;5094845;28;20203;-66
2021/06/02 15:17:14;;;;;;;5.80;1.90;;;26.70;99.90;;;;;;5094578;28;20251;-66
2021/06/02 15:20:01;;;;;;;3.30;2.08;;;26.10;99.90;;;;;;5109486;28;20230;-67
2021/06/02 15:22:48;;;;;;;3.42;1.67;;;25.40;99.90;;;;;;5113200;28;20199;-68
2021/06/02 15:25:35;;;;;;;2.30;2.10;;;24.70;99.90;;;;;;5113013;28;20227;-67